createdAt,value
2023-09-24T00:00:35.632Z,6.72
2023-09-24T00:03:20.114Z,6.32
2023-09-24T00:06:08.716Z,6.75
2023-09-24T00:08:52.777Z,6.90
2023-09-24T00:11:38.136Z,7.00
2023-09-24T00:14:22.181Z,6.90
2023-09-24T00:17:09.980Z,6.45
2023-09-24T00:19:53.960Z,6.18
2023-09-24T00:22:38.042Z,6.22
2023-09-24T00:25:22.780Z,6.57
2023-09-24T00:28:08.306Z,6.10
2023-09-24T00:30:53.322Z,6.60
2023-09-24T00:33:38.789Z,6.65
2023-09-24T00:36:22.736Z,6.18
2023-09-24T00:39:07.053Z,6.95
2023-09-24T00:41:51.812Z,6.85
2023-09-24T00:44:36.694Z,7.18
2023-09-24T00:47:21.041Z,6.88
2023-09-24T00:50:06.897Z,6.97
2023-09-24T00:52:52.299Z,7.70
2023-09-24T00:55:37.145Z,7.72
2023-09-24T00:58:21.138Z,7.18
2023-09-24T01:01:05.627Z,7.28
2023-09-24T01:03:51.040Z,7.10
2023-09-24T01:06:37.310Z,7.47
2023-09-24T01:09:21.783Z,7.10
2023-09-24T01:12:06.322Z,8.07
2023-09-24T01:14:50.813Z,6.85
2023-09-24T01:17:36.569Z,7.10
2023-09-24T01:20:22.787Z,7.20
2023-09-24T01:23:11.012Z,7.88
2023-09-24T01:25:56.907Z,7.82
2023-09-24T01:28:41.695Z,8.15
2023-09-24T01:31:27.992Z,8.00
2023-09-24T01:34:12.526Z,8.57
2023-09-24T01:36:56.696Z,8.25
2023-09-24T01:39:42.160Z,8.15
2023-09-24T01:42:28.153Z,8.00
2023-09-24T01:45:12.741Z,9.50
2023-09-24T01:47:57.314Z,9.13
2023-09-24T01:50:43.036Z,9.32
2023-09-24T01:53:26.996Z,8.77
2023-09-24T01:56:14.317Z,9.05
2023-09-24T01:58:59.665Z,9.65
2023-09-24T02:01:46.228Z,8.40
2023-09-24T02:04:30.241Z,8.32
2023-09-24T02:07:16.901Z,8.45
2023-09-24T02:10:01.001Z,8.07
2023-09-24T02:12:47.004Z,7.93
2023-09-24T02:15:32.490Z,7.32
2023-09-24T02:18:19.260Z,7.88
2023-09-24T02:21:03.872Z,8.02
2023-09-24T02:23:48.578Z,7.53
2023-09-24T02:26:33.957Z,8.13
2023-09-24T02:29:20.315Z,7.30
2023-09-24T02:32:05.593Z,7.60
2023-09-24T02:34:49.609Z,7.72
2023-09-24T02:37:34.108Z,8.30
2023-09-24T02:40:22.850Z,7.78
2023-09-24T02:43:07.012Z,7.40
2023-09-24T02:45:52.482Z,7.63
2023-09-24T02:48:37.395Z,7.88
2023-09-24T02:51:21.856Z,8.23
2023-09-24T02:54:06.725Z,8.57
2023-09-24T02:56:51.514Z,7.20
2023-09-24T02:59:36.147Z,7.53
2023-09-24T03:02:21.696Z,7.55
2023-09-24T03:05:07.050Z,7.70
2023-09-24T03:07:54.376Z,8.73
2023-09-24T03:10:40.112Z,7.88
2023-09-24T03:13:24.908Z,8.05
2023-09-24T03:16:08.895Z,8.00
2023-09-24T03:18:55.064Z,7.55
2023-09-24T03:21:39.153Z,8.15
2023-09-24T03:24:23.151Z,7.65
2023-09-24T03:27:07.176Z,8.40
2023-09-24T03:29:51.445Z,8.10
2023-09-24T03:32:35.830Z,8.48
2023-09-24T03:35:25.443Z,8.57
2023-09-24T03:38:10.173Z,8.85
2023-09-24T03:40:54.017Z,9.43
2023-09-24T03:43:38.357Z,9.23
2023-09-24T03:46:22.260Z,8.52
2023-09-24T03:49:06.210Z,9.65
2023-09-24T03:51:51.482Z,10.25
2023-09-24T03:54:35.428Z,9.02
2023-09-24T03:57:19.369Z,9.20
2023-09-24T04:00:08.195Z,8.93
2023-09-24T04:02:57.378Z,9.27
2023-09-24T04:05:41.423Z,8.90
2023-09-24T04:08:26.845Z,8.40
2023-09-24T04:11:13.178Z,8.43
2023-09-24T04:13:57.188Z,7.55
2023-09-24T04:16:41.015Z,8.25
2023-09-24T04:19:26.352Z,8.48
2023-09-24T04:22:10.408Z,9.32
2023-09-24T04:24:55.996Z,9.00
2023-09-24T04:27:40.228Z,10.13
2023-09-24T04:30:25.628Z,11.13
2023-09-24T04:33:10.151Z,13.48
2023-09-24T04:35:54.543Z,11.45
2023-09-24T04:38:38.937Z,12.80
2023-09-24T04:41:25.616Z,16.13
2023-09-24T04:44:09.597Z,13.32
2023-09-24T04:46:55.816Z,10.65
2023-09-24T04:49:39.625Z,10.80
2023-09-24T04:52:23.638Z,9.20
2023-09-24T04:55:08.168Z,9.77
2023-09-24T04:57:53.496Z,8.15
2023-09-24T05:00:37.421Z,8.05
2023-09-24T05:03:21.615Z,10.07
2023-09-24T05:06:06.389Z,8.13
2023-09-24T05:08:50.424Z,7.72
2023-09-24T05:11:34.363Z,7.78
2023-09-24T05:14:20.286Z,7.15
2023-09-24T05:17:04.364Z,6.50
2023-09-24T05:19:48.290Z,7.13
2023-09-24T05:22:32.259Z,6.90
2023-09-24T05:25:16.677Z,6.70
2023-09-24T05:28:00.663Z,7.30
2023-09-24T05:30:52.866Z,7.68
2023-09-24T05:33:36.972Z,6.47
2023-09-24T05:36:23.547Z,6.82
2023-09-24T05:39:07.570Z,5.70
2023-09-24T05:41:51.550Z,6.13
2023-09-24T05:44:35.511Z,6.05
2023-09-24T05:47:20.900Z,5.20
2023-09-24T05:50:05.145Z,5.70
2023-09-24T05:52:49.126Z,6.45
2023-09-24T05:55:33.025Z,5.63
2023-09-24T05:58:17.036Z,5.00
2023-09-24T06:01:01.132Z,4.75
2023-09-24T06:03:46.788Z,4.35
2023-09-24T06:06:30.953Z,4.53
2023-09-24T06:09:17.362Z,5.03
2023-09-24T06:12:01.527Z,5.07
2023-09-24T06:14:45.821Z,5.07
2023-09-24T06:17:30.442Z,4.68
2023-09-24T06:20:17.284Z,4.05
2023-09-24T06:23:01.262Z,4.45
2023-09-24T06:25:45.174Z,4.00
2023-09-24T06:28:29.334Z,3.97
2023-09-24T06:31:13.461Z,4.18
2023-09-24T06:33:57.550Z,4.13
2023-09-24T06:36:43.048Z,3.88
2023-09-24T06:39:27.181Z,4.30
2023-09-24T06:42:11.394Z,4.60
2023-09-24T06:44:56.415Z,3.92
2023-09-24T06:47:40.548Z,3.83
2023-09-24T06:50:25.115Z,3.72
2023-09-24T06:53:10.484Z,3.20
2023-09-24T06:55:54.479Z,3.67
2023-09-24T06:58:38.632Z,3.40
2023-09-24T07:01:22.923Z,3.72
2023-09-24T07:04:07.813Z,3.38
2023-09-24T07:06:53.425Z,3.28
2023-09-24T07:09:38.794Z,3.10
2023-09-24T07:12:23.373Z,3.03
2023-09-24T07:15:08.694Z,3.35
2023-09-24T07:17:52.698Z,2.97
2023-09-24T07:20:36.852Z,2.58
2023-09-24T07:23:21.962Z,2.90
2023-09-24T07:26:10.101Z,3.00
2023-09-24T07:28:54.698Z,2.80
2023-09-24T07:31:38.926Z,2.88
2023-09-24T07:34:22.762Z,3.00
2023-09-24T07:37:14.978Z,2.90
2023-09-24T07:39:59.548Z,2.38
2023-09-24T07:42:47.958Z,2.60
2023-09-24T07:45:31.913Z,2.30
2023-09-24T07:48:16.233Z,2.60
2023-09-24T07:51:00.226Z,2.40
2023-09-24T07:53:44.245Z,3.00
2023-09-24T07:56:28.390Z,2.97
2023-09-24T07:59:15.152Z,2.50
2023-09-24T08:01:59.997Z,2.80
2023-09-24T08:04:44.137Z,2.75
2023-09-24T08:07:30.573Z,3.13
2023-09-24T08:10:15.245Z,3.17
2023-09-24T08:12:59.243Z,3.17
2023-09-24T08:15:45.097Z,2.72
2023-09-24T08:18:29.655Z,2.97
2023-09-24T08:21:13.797Z,2.80
2023-09-24T08:23:58.704Z,2.85
2023-09-24T08:26:43.086Z,2.28
2023-09-24T08:29:27.140Z,2.30
2023-09-24T08:32:12.507Z,2.20
2023-09-24T08:34:56.600Z,2.58
2023-09-24T08:37:40.640Z,2.22
2023-09-24T08:40:25.965Z,2.85
2023-09-24T08:43:12.154Z,2.90
2023-09-24T08:45:56.301Z,2.55
2023-09-24T08:48:42.578Z,2.53
2023-09-24T08:51:26.868Z,2.20
2023-09-24T08:54:11.558Z,2.63
2023-09-24T08:56:55.485Z,2.40
2023-09-24T08:59:39.563Z,2.65
2023-09-24T09:02:24.227Z,2.38
2023-09-24T09:05:15.138Z,2.97
2023-09-24T09:08:00.956Z,2.38
2023-09-24T09:10:46.445Z,2.00
2023-09-24T09:13:30.465Z,2.17
2023-09-24T09:16:15.974Z,2.67
2023-09-24T09:19:03.642Z,2.60
2023-09-24T09:21:48.943Z,2.70
2023-09-24T09:24:32.870Z,2.70
2023-09-24T09:27:16.923Z,2.45
2023-09-24T09:30:17.902Z,2.33
2023-09-24T09:33:02.410Z,2.45
2023-09-24T09:35:46.457Z,2.47
2023-09-24T09:38:32.228Z,2.72
2023-09-24T09:41:19.847Z,2.30
2023-09-24T09:44:07.654Z,2.45
2023-09-24T09:46:54.182Z,3.25
2023-09-24T09:49:43.655Z,2.67
2023-09-24T09:52:35.961Z,2.40
2023-09-24T09:55:22.396Z,2.58
2023-09-24T09:58:21.500Z,2.40
2023-09-24T10:01:08.425Z,2.20
2023-09-24T10:03:54.583Z,2.60
2023-09-24T10:06:41.627Z,2.75
2023-09-24T10:09:36.156Z,2.78
2023-09-24T10:15:29.986Z,2.80
2023-09-24T10:18:27.006Z,2.60
2023-09-24T10:21:11.137Z,2.75
2023-09-24T10:23:55.150Z,2.80
2023-09-24T10:26:49.597Z,2.38
2023-09-24T10:30:07.595Z,2.95
2023-09-24T10:32:53.163Z,3.03
2023-09-24T10:35:37.447Z,3.05
2023-09-24T10:38:21.350Z,2.90
2023-09-24T10:41:06.592Z,2.78
2023-09-24T10:44:24.279Z,2.75
2023-09-24T10:47:26.557Z,2.20
2023-09-24T10:50:13.832Z,2.45
2023-09-24T10:53:00.244Z,2.40
2023-09-24T10:55:51.151Z,2.88
2023-09-24T10:58:50.737Z,2.10
2023-09-24T11:01:34.794Z,2.25
2023-09-24T11:04:27.435Z,2.25
2023-09-24T11:07:13.802Z,2.47
2023-09-24T11:09:57.788Z,2.53
2023-09-24T11:12:50.176Z,2.50
2023-09-24T11:15:35.407Z,2.00
2023-09-24T11:18:19.912Z,2.30
2023-09-24T11:21:05.540Z,2.72
2023-09-24T11:23:51.149Z,2.40
2023-09-24T11:26:35.082Z,2.45
2023-09-24T11:29:18.989Z,2.20
2023-09-24T11:32:04.009Z,2.05
2023-09-24T11:34:48.828Z,2.65
2023-09-24T11:37:46.689Z,2.20
2023-09-24T11:40:33.510Z,2.47
2023-09-24T11:43:17.966Z,2.00
2023-09-24T11:46:02.227Z,2.22
2023-09-24T11:48:47.271Z,2.40
2023-09-24T11:51:32.200Z,2.70
2023-09-24T11:54:16.993Z,2.30
2023-09-24T11:57:02.429Z,2.05
2023-09-24T11:59:46.393Z,2.70
2023-09-24T12:02:30.444Z,2.55
2023-09-24T12:05:30.603Z,2.45
2023-09-24T12:08:17.191Z,1.90
2023-09-24T12:11:01.277Z,2.63
2023-09-24T12:13:46.898Z,2.55
2023-09-24T12:16:30.932Z,3.35
2023-09-24T12:19:14.814Z,3.30
2023-09-24T12:21:58.689Z,2.45
2023-09-24T12:24:42.557Z,2.55
2023-09-24T12:27:30.269Z,2.50
2023-09-24T12:30:15.778Z,2.70
2023-09-24T12:32:59.743Z,2.45
2023-09-24T12:35:44.196Z,2.22
2023-09-24T12:38:28.240Z,2.42
2023-09-24T12:41:12.888Z,2.22
2023-09-24T12:43:57.147Z,2.10
2023-09-24T12:46:42.649Z,2.58
2023-09-24T12:49:26.713Z,2.10
2023-09-24T12:52:11.508Z,2.05
2023-09-24T12:54:55.455Z,2.00
2023-09-24T12:57:40.594Z,2.22
2023-09-24T13:00:24.830Z,2.20
2023-09-24T13:03:11.710Z,2.30
2023-09-24T13:05:55.768Z,2.30
2023-09-24T13:08:39.725Z,2.38
2023-09-24T13:11:23.989Z,2.58
2023-09-24T13:14:08.672Z,2.00
2023-09-24T13:16:53.581Z,2.20
2023-09-24T13:19:38.914Z,2.08
2023-09-24T13:22:22.798Z,1.85
2023-09-24T13:25:07.746Z,2.20
2023-09-24T13:27:52.060Z,2.55
2023-09-24T13:30:36.409Z,2.25
2023-09-24T13:33:20.424Z,2.47
2023-09-24T13:36:06.628Z,1.92
2023-09-24T13:38:51.182Z,1.90
2023-09-24T13:41:35.507Z,1.95
2023-09-24T13:44:19.653Z,1.90
2023-09-24T13:47:03.825Z,1.73
2023-09-24T13:49:47.941Z,1.77
2023-09-24T13:52:33.252Z,1.73
2023-09-24T13:55:17.401Z,2.03
2023-09-24T13:58:01.345Z,1.55
2023-09-24T14:00:46.604Z,1.67
2023-09-24T14:03:30.686Z,1.90
2023-09-24T14:06:14.965Z,1.50
2023-09-24T14:09:17.609Z,1.98
2023-09-24T14:12:23.325Z,1.92
2023-09-24T14:15:09.014Z,1.63
2023-09-24T14:18:07.156Z,2.00
2023-09-24T14:20:56.783Z,1.70
2023-09-24T14:23:41.391Z,2.35
2023-09-24T14:26:27.116Z,2.00
2023-09-24T14:29:11.125Z,2.08
2023-09-24T14:31:55.115Z,1.92
2023-09-24T14:34:38.988Z,1.70
2023-09-24T14:37:26.353Z,2.42
2023-09-24T14:40:11.912Z,2.35
2023-09-24T14:42:57.933Z,2.40
2023-09-24T14:45:41.818Z,2.20
2023-09-24T14:48:26.205Z,2.40
2023-09-24T14:51:10.327Z,2.65
2023-09-24T14:53:59.895Z,2.40
2023-09-24T14:56:44.192Z,2.70
2023-09-24T14:59:29.645Z,2.85
2023-09-24T15:02:14.442Z,2.45
2023-09-24T15:04:58.510Z,2.70
2023-09-24T15:07:42.430Z,2.65
2023-09-24T15:10:26.280Z,2.67
2023-09-24T15:13:10.434Z,2.72
2023-09-24T15:15:55.799Z,2.55
2023-09-24T15:18:39.832Z,2.70
2023-09-24T15:21:24.009Z,2.53
2023-09-24T15:24:12.779Z,3.05
2023-09-24T15:26:56.803Z,3.10
2023-09-24T15:29:40.725Z,2.60
2023-09-24T15:32:26.021Z,2.35
2023-09-24T15:35:11.086Z,3.10
2023-09-24T15:37:55.180Z,3.03
2023-09-24T15:40:40.176Z,3.38
2023-09-24T15:43:24.191Z,3.20
2023-09-24T15:46:15.230Z,3.33
2023-09-24T15:49:00.779Z,3.55
2023-09-24T15:51:45.050Z,3.22
2023-09-24T15:54:29.732Z,3.03
2023-09-24T15:57:13.825Z,3.47
2023-09-24T15:59:58.167Z,3.28
2023-09-24T16:02:43.321Z,3.50
2023-09-24T16:05:28.728Z,3.45
2023-09-24T16:08:12.803Z,3.17
2023-09-24T16:10:56.764Z,3.20
2023-09-24T16:13:41.429Z,3.28
2023-09-24T16:16:27.229Z,3.25
2023-09-24T16:19:11.470Z,3.45
2023-09-24T16:21:56.847Z,3.70
2023-09-24T16:24:40.757Z,3.20
2023-09-24T16:27:24.692Z,3.33
2023-09-24T16:30:10.024Z,3.42
2023-09-24T16:32:54.252Z,3.75
2023-09-24T16:35:41.589Z,3.30
2023-09-24T16:38:27.030Z,3.72
2023-09-24T16:41:13.088Z,3.30
2023-09-24T16:43:58.129Z,3.83
2023-09-24T16:46:42.170Z,3.58
2023-09-24T16:49:26.095Z,3.03
2023-09-24T16:52:10.113Z,3.42
2023-09-24T16:54:55.368Z,3.40
2023-09-24T16:57:39.723Z,3.70
2023-09-24T17:00:24.473Z,3.67
2023-09-24T17:03:09.150Z,4.78
2023-09-24T17:05:53.312Z,4.68
2023-09-24T17:08:37.347Z,3.40
2023-09-24T17:11:22.630Z,4.15
2023-09-24T17:14:07.839Z,3.45
2023-09-24T17:16:54.340Z,3.53
2023-09-24T17:19:39.065Z,3.83
2023-09-24T17:22:23.632Z,4.05
2023-09-24T17:25:08.655Z,4.88
2023-09-24T17:27:54.209Z,4.03
2023-09-24T17:30:40.673Z,3.17
2023-09-24T17:33:24.765Z,3.50
2023-09-24T17:36:11.087Z,3.40
2023-09-24T17:38:55.201Z,4.10
2023-09-24T17:41:39.310Z,3.17
2023-09-24T17:44:24.831Z,3.67
2023-09-24T17:47:08.849Z,3.85
2023-09-24T17:49:52.811Z,3.83
2023-09-24T17:52:36.947Z,3.90
2023-09-24T17:55:21.118Z,3.88
2023-09-24T17:58:06.201Z,3.95
2023-09-24T18:00:51.719Z,4.50
2023-09-24T18:03:36.442Z,4.10
2023-09-24T18:06:20.886Z,5.35
2023-09-24T18:09:06.293Z,4.68
2023-09-24T18:11:50.499Z,4.45
2023-09-24T18:14:34.948Z,3.90
2023-09-24T18:17:20.735Z,4.13
2023-09-24T18:20:05.465Z,4.03
2023-09-24T18:22:49.609Z,4.03
2023-09-24T18:25:34.010Z,4.13
2023-09-24T18:28:18.840Z,4.25
2023-09-24T18:31:03.342Z,4.15
2023-09-24T18:33:49.311Z,4.18
2023-09-24T18:36:34.102Z,4.93
2023-09-24T18:39:19.550Z,4.70
2023-09-24T18:42:04.053Z,4.40
2023-09-24T18:44:48.810Z,5.25
2023-09-24T18:47:37.895Z,4.32
2023-09-24T18:50:23.308Z,4.95
2023-09-24T18:53:10.593Z,4.88
2023-09-24T18:56:01.890Z,4.75
2023-09-24T18:58:46.912Z,5.32
2023-09-24T19:01:31.496Z,4.68
2023-09-24T19:04:16.356Z,4.38
2023-09-24T19:07:02.236Z,4.35
2023-09-24T19:09:47.417Z,3.88
2023-09-24T19:12:31.721Z,4.57
2023-09-24T19:15:18.413Z,4.38
2023-09-24T19:18:03.175Z,4.60
2023-09-24T19:20:50.387Z,4.72
2023-09-24T19:23:36.020Z,4.82
2023-09-24T19:26:20.278Z,4.57
2023-09-24T19:29:04.465Z,5.57
2023-09-24T19:31:48.527Z,5.75
2023-09-24T19:34:32.549Z,6.38
2023-09-24T19:37:16.804Z,6.57
2023-09-24T19:40:02.088Z,6.88
2023-09-24T19:42:47.744Z,6.63
2023-09-24T19:45:31.991Z,9.60
2023-09-24T19:48:16.197Z,11.02
2023-09-24T19:51:00.537Z,9.40
2023-09-24T19:53:44.886Z,7.93
2023-09-24T19:56:30.390Z,7.70
2023-09-24T19:59:14.332Z,6.75
2023-09-24T20:01:58.537Z,7.07
2023-09-24T20:04:42.797Z,6.45
2023-09-24T20:07:26.830Z,5.78
2023-09-24T20:10:15.357Z,5.40
2023-09-24T20:13:00.843Z,6.22
2023-09-24T20:15:44.964Z,6.05
2023-09-24T20:18:31.364Z,8.50
2023-09-24T20:21:15.469Z,8.57
2023-09-24T20:24:00.010Z,8.18
2023-09-24T20:26:45.730Z,8.25
2023-09-24T20:29:31.080Z,7.47
2023-09-24T20:32:15.097Z,6.43
2023-09-24T20:34:59.160Z,8.07
2023-09-24T20:37:43.117Z,7.47
2023-09-24T20:40:27.163Z,7.10
2023-09-24T20:43:11.712Z,7.13
2023-09-24T20:45:59.963Z,8.10
2023-09-24T20:48:43.947Z,7.15
2023-09-24T20:51:27.813Z,6.88
2023-09-24T20:54:11.928Z,7.15
2023-09-24T20:56:56.484Z,7.57
2023-09-24T20:59:45.604Z,7.63
2023-09-24T21:02:30.990Z,7.25
2023-09-24T21:05:15.181Z,7.53
2023-09-24T21:07:59.073Z,7.75
2023-09-24T21:10:43.122Z,6.05
2023-09-24T21:13:27.212Z,6.55
2023-09-24T21:16:11.178Z,6.25
2023-09-24T21:18:57.227Z,6.88
2023-09-24T21:21:41.185Z,7.05
2023-09-24T21:24:25.171Z,7.40
2023-09-24T21:27:09.157Z,7.25
2023-09-24T21:29:55.178Z,8.00
2023-09-24T21:32:39.189Z,8.02
2023-09-24T21:35:24.817Z,7.05
2023-09-24T21:38:08.747Z,7.80
2023-09-24T21:40:52.999Z,6.97
2023-09-24T21:43:37.019Z,9.25
2023-09-24T21:46:20.917Z,7.70
2023-09-24T21:49:04.982Z,8.70
2023-09-24T21:51:50.317Z,9.02
2023-09-24T21:54:35.162Z,8.23
2023-09-24T21:57:19.370Z,7.72
2023-09-24T22:00:11.860Z,9.95
2023-09-24T22:02:55.883Z,8.85
2023-09-24T22:05:43.808Z,9.23
2023-09-24T22:08:29.265Z,8.48
2023-09-24T22:11:13.244Z,8.48
2023-09-24T22:13:57.148Z,10.60
2023-09-24T22:16:41.733Z,9.98
2023-09-24T22:19:25.795Z,10.40
2023-09-24T22:22:09.737Z,10.05
2023-09-24T22:24:55.072Z,9.18
2023-09-24T22:27:39.253Z,10.68
2023-09-24T22:30:23.520Z,11.25
2023-09-24T22:33:07.658Z,10.30
2023-09-24T22:35:51.608Z,15.07
2023-09-24T22:38:35.665Z,15.55
2023-09-24T22:41:20.983Z,16.35
2023-09-24T22:44:05.420Z,15.80
2023-09-24T22:46:49.387Z,13.88
2023-09-24T22:49:33.297Z,13.52
2023-09-24T22:52:17.824Z,13.50
2023-09-24T22:55:02.496Z,14.23
2023-09-24T22:57:49.294Z,12.82
2023-09-24T23:00:33.524Z,15.50
2023-09-24T23:03:17.793Z,14.90
2023-09-24T23:06:02.177Z,13.95
2023-09-24T23:08:46.465Z,11.85
2023-09-24T23:11:30.659Z,11.00
2023-09-24T23:14:16.358Z,12.63
2023-09-24T23:17:00.791Z,12.90
2023-09-24T23:19:44.943Z,11.95
2023-09-24T23:22:30.311Z,14.27
2023-09-24T23:25:14.509Z,14.40
2023-09-24T23:27:59.025Z,12.18
2023-09-24T23:30:46.891Z,14.77
2023-09-24T23:33:31.389Z,15.77
2023-09-24T23:36:16.135Z,15.23
2023-09-24T23:39:00.479Z,13.88
2023-09-24T23:41:45.256Z,15.27
2023-09-24T23:44:29.754Z,15.35
2023-09-24T23:47:15.394Z,15.55
2023-09-24T23:49:59.605Z,13.90
2023-09-24T23:52:44.134Z,13.98
2023-09-24T23:55:28.278Z,12.80
2023-09-24T23:58:12.504Z,14.60
